sensor_id;sensor_type;location;lat;lon;timestamp;pressure;altitude;pressure_sealevel;temperature;humidity
46710;BME280;32442;51.514;-0.178;2023-05-03T00:01:56;102588.88;;;22.58;42.79
46710;BME280;32442;51.514;-0.178;2023-05-03T00:04:28;102598.47;;;22.57;42.40
46710;BME280;32442;51.514;-0.178;2023-05-03T00:06:57;102593.97;;;22.56;42.80
46710;BME280;32442;51.514;-0.178;2023-05-03T00:09:24;102598.75;;;22.55;42.56
46710;BME280;32442;51.514;-0.178;2023-05-03T00:11:53;102597.34;;;22.53;42.79
46710;BME280;32442;51.514;-0.178;2023-05-03T00:14:20;102591.72;;;22.53;43.14
46710;BME280;32442;51.514;-0.178;2023-05-03T00:16:47;102597.34;;;22.53;43.41
46710;BME280;32442;51.514;-0.178;2023-05-03T00:19:14;102595.66;;;22.52;43.04
46710;BME280;32442;51.514;-0.178;2023-05-03T00:21:56;102600.16;;;22.53;43.51
46710;BME280;32442;51.514;-0.178;2023-05-03T00:24:23;102590.88;;;22.52;43.36
46710;BME280;32442;51.514;-0.178;2023-05-03T00:26:50;102593.09;;;22.50;43.12
46710;BME280;32442;51.514;-0.178;2023-05-03T00:29:17;102596.50;;;22.52;43.59
46710;BME280;32442;51.514;-0.178;2023-05-03T00:31:46;102595.06;;;22.50;43.56
46710;BME280;32442;51.514;-0.178;2023-05-03T00:34:13;102595.38;;;22.48;43.65
46710;BME280;32442;51.514;-0.178;2023-05-03T00:36:40;102589.44;;;22.50;43.83
46710;BME280;32442;51.514;-0.178;2023-05-03T00:39:07;102590.03;;;22.47;44.08
46710;BME280;32442;51.514;-0.178;2023-05-03T00:41:34;102585.22;;;22.47;43.72
46710;BME280;32442;51.514;-0.178;2023-05-03T00:44:01;102592.00;;;22.46;44.04
46710;BME280;32442;51.514;-0.178;2023-05-03T00:46:28;102585.22;;;22.47;44.16
46710;BME280;32442;51.514;-0.178;2023-05-03T00:48:55;102591.13;;;22.46;43.99
46710;BME280;32442;51.514;-0.178;2023-05-03T00:51:22;102588.31;;;22.46;43.65
46710;BME280;32442;51.514;-0.178;2023-05-03T00:53:49;102592.25;;;22.40;43.84
46710;BME280;32442;51.514;-0.178;2023-05-03T00:56:17;102584.97;;;22.39;43.85
46710;BME280;32442;51.514;-0.178;2023-05-03T00:58:50;102584.94;;;22.34;44.04
46710;BME280;32442;51.514;-0.178;2023-05-03T01:01:17;102585.78;;;22.29;44.32
46710;BME280;32442;51.514;-0.178;2023-05-03T01:03:44;102588.59;;;22.29;44.13
46710;BME280;32442;51.514;-0.178;2023-05-03T01:08:57;102583.53;;;22.21;44.37
46710;BME280;32442;51.514;-0.178;2023-05-03T01:11:27;102582.38;;;22.17;44.27
46710;BME280;32442;51.514;-0.178;2023-05-03T01:14:07;102580.97;;;22.14;44.58
46710;BME280;32442;51.514;-0.178;2023-05-03T01:16:38;102582.41;;;22.12;44.66
46710;BME280;32442;51.514;-0.178;2023-05-03T01:19:12;102579.84;;;22.10;45.02
46710;BME280;32442;51.514;-0.178;2023-05-03T01:21:41;102575.63;;;22.08;45.02
46710;BME280;32442;51.514;-0.178;2023-05-03T01:26:45;102577.59;;;22.02;44.82
46710;BME280;32442;51.514;-0.178;2023-05-03T01:29:13;102573.09;;;22.01;44.84
46710;BME280;32442;51.514;-0.178;2023-05-03T01:31:43;102564.91;;;22.00;44.95
46710;BME280;32442;51.514;-0.178;2023-05-03T01:36:48;102570.84;;;21.98;45.46
46710;BME280;32442;51.514;-0.178;2023-05-03T01:39:18;102571.97;;;21.97;45.14
46710;BME280;32442;51.514;-0.178;2023-05-03T01:41:47;102563.78;;;21.96;45.22
46710;BME280;32442;51.514;-0.178;2023-05-03T01:44:15;102564.91;;;21.95;45.06
46710;BME280;32442;51.514;-0.178;2023-05-03T01:46:43;102558.72;;;21.93;45.18
46710;BME280;32442;51.514;-0.178;2023-05-03T01:49:10;102558.97;;;21.91;45.33
46710;BME280;32442;51.514;-0.178;2023-05-03T01:51:37;102559.53;;;21.88;45.87
46710;BME280;32442;51.514;-0.178;2023-05-03T01:54:04;102552.19;;;21.87;45.43
46710;BME280;32442;51.514;-0.178;2023-05-03T01:56:32;102551.91;;;21.84;45.51
46710;BME280;32442;51.514;-0.178;2023-05-03T01:59:02;102551.91;;;21.84;45.60
46710;BME280;32442;51.514;-0.178;2023-05-03T02:01:29;102557.81;;;21.82;45.91
46710;BME280;32442;51.514;-0.178;2023-05-03T02:03:56;102552.44;;;21.81;46.27
46710;BME280;32442;51.514;-0.178;2023-05-03T02:06:24;102557.25;;;21.80;45.99
46710;BME280;32442;51.514;-0.178;2023-05-03T02:08:51;102557.53;;;21.79;46.39
46710;BME280;32442;51.514;-0.178;2023-05-03T02:11:21;102561.72;;;21.76;46.28
46710;BME280;32442;51.514;-0.178;2023-05-03T02:13:48;102556.09;;;21.76;46.03
46710;BME280;32442;51.514;-0.178;2023-05-03T02:16:16;102560.06;;;21.75;46.17
46710;BME280;32442;51.514;-0.178;2023-05-03T02:18:43;102560.31;;;21.73;46.46
46710;BME280;32442;51.514;-0.178;2023-05-03T02:21:10;102566.81;;;21.74;46.39
46710;BME280;32442;51.514;-0.178;2023-05-03T02:23:38;102573.53;;;21.73;46.58
46710;BME280;32442;51.514;-0.178;2023-05-03T02:26:05;102571.00;;;21.71;46.84
46710;BME280;32442;51.514;-0.178;2023-05-03T02:28:35;102564.81;;;21.69;46.72
46710;BME280;32442;51.514;-0.178;2023-05-03T02:31:05;102563.38;;;21.67;46.69
46710;BME280;32442;51.514;-0.178;2023-05-03T02:33:32;102570.44;;;21.69;46.57
46710;BME280;32442;51.514;-0.178;2023-05-03T02:35:59;102560.88;;;21.65;46.89
46710;BME280;32442;51.514;-0.178;2023-05-03T02:38:26;102568.72;;;21.63;46.95
46710;BME280;32442;51.514;-0.178;2023-05-03T02:40:52;102561.41;;;21.62;47.17
46710;BME280;32442;51.514;-0.178;2023-05-03T02:43:19;102566.22;;;21.62;47.04
46710;BME280;32442;51.514;-0.178;2023-05-03T02:45:46;102558.03;;;21.60;47.20
46710;BME280;32442;51.514;-0.178;2023-05-03T02:48:13;102561.13;;;21.59;47.11
46710;BME280;32442;51.514;-0.178;2023-05-03T02:50:41;102568.72;;;21.58;46.95
46710;BME280;32442;51.514;-0.178;2023-05-03T02:53:08;102566.19;;;21.57;47.37
46710;BME280;32442;51.514;-0.178;2023-05-03T02:55:35;102556.91;;;21.56;46.86
46710;BME280;32442;51.514;-0.178;2023-05-03T02:58:02;102564.75;;;21.54;47.28
46710;BME280;32442;51.514;-0.178;2023-05-03T03:00:29;102555.78;;;21.52;47.19
46710;BME280;32442;51.514;-0.178;2023-05-03T03:02:56;102570.09;;;21.51;47.04
46710;BME280;32442;51.514;-0.178;2023-05-03T03:05:23;102554.06;;;21.51;47.42
46710;BME280;32442;51.514;-0.178;2023-05-03T03:07:50;102558.00;;;21.50;46.99
46710;BME280;32442;51.514;-0.178;2023-05-03T03:10:17;102551.81;;;21.48;47.29
46710;BME280;32442;51.514;-0.178;2023-05-03T03:12:44;102548.16;;;21.48;47.55
46710;BME280;32442;51.514;-0.178;2023-05-03T03:15:11;102546.72;;;21.45;47.58
46710;BME280;32442;51.514;-0.178;2023-05-03T03:17:39;102539.41;;;21.44;47.09
46710;BME280;32442;51.514;-0.178;2023-05-03T03:20:06;102550.09;;;21.42;47.45
46710;BME280;32442;51.514;-0.178;2023-05-03T03:22:38;102542.53;;;21.43;46.97
46710;BME280;32442;51.514;-0.178;2023-05-03T03:25:05;102541.09;;;21.40;47.47
46710;BME280;32442;51.514;-0.178;2023-05-03T03:27:32;102536.59;;;21.39;47.35
46710;BME280;32442;51.514;-0.178;2023-05-03T03:29:59;102530.41;;;21.37;47.09
46710;BME280;32442;51.514;-0.178;2023-05-03T03:32:27;102532.63;;;21.35;47.08
46710;BME280;32442;51.514;-0.178;2023-05-03T03:34:53;102519.72;;;21.34;47.46
46710;BME280;32442;51.514;-0.178;2023-05-03T03:37:20;102522.22;;;21.30;47.37
46710;BME280;32442;51.514;-0.178;2023-05-03T03:39:48;102516.06;;;21.34;47.27
46710;BME280;32442;51.514;-0.178;2023-05-03T03:42:15;102508.16;;;21.30;47.49
46710;BME280;32442;51.514;-0.178;2023-05-03T03:44:44;102509.28;;;21.29;46.98
46710;BME280;32442;51.514;-0.178;2023-05-03T03:47:11;102506.75;;;21.28;47.05
46710;BME280;32442;51.514;-0.178;2023-05-03T03:49:38;102500.53;;;21.26;47.13
46710;BME280;32442;51.514;-0.178;2023-05-03T03:52:05;102499.44;;;21.27;47.23
46710;BME280;32442;51.514;-0.178;2023-05-03T03:54:32;102495.47;;;21.23;47.53
46710;BME280;32442;51.514;-0.178;2023-05-03T03:57:01;102500.00;;;21.24;47.50
46710;BME280;32442;51.514;-0.178;2023-05-03T03:59:29;102495.75;;;21.21;47.38
46710;BME280;32442;51.514;-0.178;2023-05-03T04:01:56;102496.34;;;21.23;47.23
46710;BME280;32442;51.514;-0.178;2023-05-03T04:04:23;102487.63;;;21.20;47.29
46710;BME280;32442;51.514;-0.178;2023-05-03T04:06:50;102486.50;;;21.21;47.42
46710;BME280;32442;51.514;-0.178;2023-05-03T04:09:17;102487.03;;;21.18;47.08
46710;BME280;32442;51.514;-0.178;2023-05-03T04:11:44;102483.66;;;21.16;47.13
46710;BME280;32442;51.514;-0.178;2023-05-03T04:14:11;102485.34;;;21.17;47.52
46710;BME280;32442;51.514;-0.178;2023-05-03T04:16:38;102481.13;;;21.14;47.69
46710;BME280;32442;51.514;-0.178;2023-05-03T04:19:05;102481.38;;;21.13;47.50
46710;BME280;32442;51.514;-0.178;2023-05-03T04:21:32;102472.94;;;21.13;47.34
46710;BME280;32442;51.514;-0.178;2023-05-03T04:23:59;102476.03;;;21.11;47.45
46710;BME280;32442;51.514;-0.178;2023-05-03T04:26:30;102474.88;;;21.12;47.78
46710;BME280;32442;51.514;-0.178;2023-05-03T04:28:57;102485.31;;;21.12;47.50
46710;BME280;32442;51.514;-0.178;2023-05-03T04:31:25;102472.91;;;21.08;47.61
46710;BME280;32442;51.514;-0.178;2023-05-03T04:33:52;102483.59;;;21.06;47.74
46710;BME280;32442;51.514;-0.178;2023-05-03T04:36:19;102485.28;;;21.07;48.10
46710;BME280;32442;51.514;-0.178;2023-05-03T04:38:51;102485.28;;;21.07;47.81
46710;BME280;32442;51.514;-0.178;2023-05-03T04:41:18;102488.34;;;21.05;48.41
46710;BME280;32442;51.514;-0.178;2023-05-03T04:43:45;102484.69;;;21.05;48.11
46710;BME280;32442;51.514;-0.178;2023-05-03T04:46:12;102487.78;;;21.03;48.20
46710;BME280;32442;51.514;-0.178;2023-05-03T04:48:39;102478.53;;;21.03;48.35
46710;BME280;32442;51.514;-0.178;2023-05-03T04:51:05;102473.16;;;21.01;48.54
46710;BME280;32442;51.514;-0.178;2023-05-03T04:53:33;102481.88;;;21.00;48.42
46710;BME280;32442;51.514;-0.178;2023-05-03T04:56:00;102482.97;;;20.99;48.47
46710;BME280;32442;51.514;-0.178;2023-05-03T04:58:27;102478.75;;;20.96;48.55
46710;BME280;32442;51.514;-0.178;2023-05-03T05:00:54;102493.66;;;20.97;48.18
46710;BME280;32442;51.514;-0.178;2023-05-03T05:03:21;102497.31;;;20.97;48.11
46710;BME280;32442;51.514;-0.178;2023-05-03T05:05:51;102492.56;;;20.98;47.98
46710;BME280;32442;51.514;-0.178;2023-05-03T05:08:18;102495.34;;;20.93;48.36
46710;BME280;32442;51.514;-0.178;2023-05-03T05:10:46;102501.50;;;20.95;48.27
46710;BME280;32442;51.514;-0.178;2023-05-03T05:13:13;102499.53;;;20.95;48.17
46710;BME280;32442;51.514;-0.178;2023-05-03T05:15:40;102504.03;;;20.91;48.08
46710;BME280;32442;51.514;-0.178;2023-05-03T05:18:10;102504.03;;;20.91;47.88
46710;BME280;32442;51.514;-0.178;2023-05-03T05:20:37;102514.41;;;20.91;48.22
46710;BME280;32442;51.514;-0.178;2023-05-03T05:23:04;102509.91;;;20.90;48.21
46710;BME280;32442;51.514;-0.178;2023-05-03T05:25:30;102513.28;;;20.86;47.92
46710;BME280;32442;51.514;-0.178;2023-05-03T05:27:57;102513.28;;;20.86;47.89
46710;BME280;32442;51.514;-0.178;2023-05-03T05:30:24;102510.47;;;20.86;47.87
46710;BME280;32442;51.514;-0.178;2023-05-03T05:32:51;102514.69;;;20.84;47.91
46710;BME280;32442;51.514;-0.178;2023-05-03T05:35:18;102518.88;;;20.86;47.97
46710;BME280;32442;51.514;-0.178;2023-05-03T05:37:45;102522.59;;;20.92;47.91
46710;BME280;32442;51.514;-0.178;2023-05-03T05:40:12;102515.88;;;20.98;48.11
46710;BME280;32442;51.514;-0.178;2023-05-03T05:42:40;102520.38;;;21.04;48.75
46710;BME280;32442;51.514;-0.178;2023-05-03T05:45:07;102528.00;;;21.09;48.92
46710;BME280;32442;51.514;-0.178;2023-05-03T05:47:34;102529.75;;;21.15;48.56
46710;BME280;32442;51.514;-0.178;2023-05-03T05:50:01;102528.94;;;21.19;48.66
46710;BME280;32442;51.514;-0.178;2023-05-03T05:52:37;102521.06;;;21.26;48.77
46710;BME280;32442;51.514;-0.178;2023-05-03T05:55:05;102521.09;;;21.32;48.68
46710;BME280;32442;51.514;-0.178;2023-05-03T05:57:33;102527.84;;;21.36;48.69
46710;BME280;32442;51.514;-0.178;2023-05-03T06:00:00;102531.53;;;21.41;48.19
46710;BME280;32442;51.514;-0.178;2023-05-03T06:02:27;102531.81;;;21.45;48.08
46710;BME280;32442;51.514;-0.178;2023-05-03T06:04:55;102525.38;;;21.49;47.58
46710;BME280;32442;51.514;-0.178;2023-05-03T06:07:22;102528.50;;;21.53;47.66
46710;BME280;32442;51.514;-0.178;2023-05-03T06:09:50;102534.41;;;21.56;47.63
46710;BME280;32442;51.514;-0.178;2023-05-03T06:12:17;102535.81;;;21.59;47.08
46710;BME280;32442;51.514;-0.178;2023-05-03T06:14:44;102540.59;;;21.63;47.05
46710;BME280;32442;51.514;-0.178;2023-05-03T06:17:27;102536.69;;;21.64;47.19
46710;BME280;32442;51.514;-0.178;2023-05-03T06:19:54;102536.09;;;21.67;46.75
46710;BME280;32442;51.514;-0.178;2023-05-03T06:22:21;102533.88;;;21.69;46.86
46710;BME280;32442;51.514;-0.178;2023-05-03T06:24:48;102534.72;;;21.70;46.41
46710;BME280;32442;51.514;-0.178;2023-05-03T06:27:15;102536.13;;;21.72;46.23
46710;BME280;32442;51.514;-0.178;2023-05-03T06:29:43;102526.56;;;21.73;46.46
46710;BME280;32442;51.514;-0.178;2023-05-03T06:32:10;102527.97;;;21.76;46.51
46710;BME280;32442;51.514;-0.178;2023-05-03T06:34:37;102528.28;;;21.80;46.61
46710;BME280;32442;51.514;-0.178;2023-05-03T06:37:04;102527.13;;;21.86;46.32
46710;BME280;32442;51.514;-0.178;2023-05-03T06:39:32;102526.00;;;21.77;42.41
46710;BME280;32442;51.514;-0.178;2023-05-03T06:41:59;102528.25;;;21.69;43.16
46710;BME280;32442;51.514;-0.178;2023-05-03T06:44:27;102528.28;;;21.80;42.41
46710;BME280;32442;51.514;-0.178;2023-05-03T06:46:54;102508.59;;;21.85;42.18
46710;BME280;32442;51.514;-0.178;2023-05-03T06:49:21;102517.00;;;21.90;42.09
46710;BME280;32442;51.514;-0.178;2023-05-03T06:51:48;102513.41;;;21.94;42.22
46710;BME280;32442;51.514;-0.178;2023-05-03T06:54:15;102515.38;;;21.99;42.39
46710;BME280;32442;51.514;-0.178;2023-05-03T06:56:42;102511.72;;;22.03;42.11
46710;BME280;32442;51.514;-0.178;2023-05-03T06:59:09;102508.34;;;22.06;42.43
46710;BME280;32442;51.514;-0.178;2023-05-03T07:01:36;102510.03;;;22.12;41.98
46710;BME280;32442;51.514;-0.178;2023-05-03T07:04:03;102501.31;;;22.14;42.28
46710;BME280;32442;51.514;-0.178;2023-05-03T07:06:33;102505.25;;;22.18;42.27
46710;BME280;32442;51.514;-0.178;2023-05-03T07:09:20;102498.50;;;22.24;42.02
46710;BME280;32442;51.514;-0.178;2023-05-03T07:12:07;102498.78;;;22.28;41.88
46710;BME280;32442;51.514;-0.178;2023-05-03T07:14:34;102498.50;;;22.29;42.28
46710;BME280;32442;51.514;-0.178;2023-05-03T07:17:01;102492.28;;;22.32;41.81
46710;BME280;32442;51.514;-0.178;2023-05-03T07:19:29;102490.91;;;22.35;41.90
46710;BME280;32442;51.514;-0.178;2023-05-03T07:21:56;102499.03;;;22.36;41.93
46710;BME280;32442;51.514;-0.178;2023-05-03T07:24:23;102487.50;;;22.38;41.70
46710;BME280;32442;51.514;-0.178;2023-05-03T07:26:52;102494.25;;;22.42;41.79
46710;BME280;32442;51.514;-0.178;2023-05-03T07:29:22;102491.44;;;22.42;41.72
46710;BME280;32442;51.514;-0.178;2023-05-03T07:31:50;102492.28;;;22.37;41.63
46710;BME280;32442;51.514;-0.178;2023-05-03T07:34:19;102502.13;;;22.45;42.04
46710;BME280;32442;51.514;-0.178;2023-05-03T07:36:46;102497.91;;;22.47;41.61
46710;BME280;32442;51.514;-0.178;2023-05-03T07:39:14;102497.91;;;22.42;41.64
46710;BME280;32442;51.514;-0.178;2023-05-03T07:41:41;102495.94;;;22.43;41.42
46710;BME280;32442;51.514;-0.178;2023-05-03T07:44:09;102492.81;;;22.44;41.21
46710;BME280;32442;51.514;-0.178;2023-05-03T07:46:36;102498.75;;;22.43;41.05
46710;BME280;32442;51.514;-0.178;2023-05-03T07:49:04;102493.13;;;22.38;41.28
46710;BME280;32442;51.514;-0.178;2023-05-03T07:51:35;102493.41;;;22.36;40.80
46710;BME280;32442;51.514;-0.178;2023-05-03T07:54:04;102502.69;;;22.37;40.74
46710;BME280;32442;51.514;-0.178;2023-05-03T07:56:32;102504.13;;;22.34;40.81
46710;BME280;32442;51.514;-0.178;2023-05-03T07:58:59;102501.31;;;22.34;40.67
46710;BME280;32442;51.514;-0.178;2023-05-03T08:01:35;102503.56;;;22.32;40.81
46710;BME280;32442;51.514;-0.178;2023-05-03T08:04:03;102499.88;;;22.32;40.60
46710;BME280;32442;51.514;-0.178;2023-05-03T08:06:31;102490.59;;;22.31;40.52
46710;BME280;32442;51.514;-0.178;2023-05-03T08:08:59;102497.38;;;22.30;40.71
46710;BME280;32442;51.514;-0.178;2023-05-03T08:11:26;102496.81;;;22.28;40.45
46710;BME280;32442;51.514;-0.178;2023-05-03T08:13:55;102497.66;;;22.29;40.93
46710;BME280;32442;51.514;-0.178;2023-05-03T08:16:22;102487.50;;;22.28;40.78
46710;BME280;32442;51.514;-0.178;2023-05-03T08:18:49;102492.28;;;22.27;40.94
46710;BME280;32442;51.514;-0.178;2023-05-03T08:21:17;102490.91;;;22.25;40.43
46710;BME280;32442;51.514;-0.178;2023-05-03T08:23:45;102497.06;;;22.27;40.76
46710;BME280;32442;51.514;-0.178;2023-05-03T08:26:12;102485.81;;;22.27;40.71
46710;BME280;32442;51.514;-0.178;2023-05-03T08:28:40;102484.97;;;22.26;40.65
46710;BME280;32442;51.514;-0.178;2023-05-03T08:31:08;102484.41;;;22.24;40.66
46710;BME280;32442;51.514;-0.178;2023-05-03T08:33:35;102475.97;;;22.19;40.22
46710;BME280;32442;51.514;-0.178;2023-05-03T08:36:03;102485.84;;;22.16;40.62
46710;BME280;32442;51.514;-0.178;2023-05-03T08:38:33;102491.16;;;22.18;40.62
46710;BME280;32442;51.514;-0.178;2023-05-03T08:41:03;102488.66;;;22.16;40.67
46710;BME280;32442;51.514;-0.178;2023-05-03T08:43:35;102481.34;;;22.15;40.81
46710;BME280;32442;51.514;-0.178;2023-05-03T08:46:05;102492.00;;;22.13;40.86
46710;BME280;32442;51.514;-0.178;2023-05-03T08:48:40;102485.53;;;22.13;40.87
46710;BME280;32442;51.514;-0.178;2023-05-03T08:51:08;102483.56;;;22.13;40.62
46710;BME280;32442;51.514;-0.178;2023-05-03T08:53:36;102479.34;;;22.11;40.55
46710;BME280;32442;51.514;-0.178;2023-05-03T08:56:05;102480.22;;;22.11;40.94
46710;BME280;32442;51.514;-0.178;2023-05-03T08:58:36;102472.63;;;22.07;40.82
46710;BME280;32442;51.514;-0.178;2023-05-03T09:01:04;102473.16;;;22.09;40.58
46710;BME280;32442;51.514;-0.178;2023-05-03T09:03:32;102473.47;;;22.07;40.86
46710;BME280;32442;51.514;-0.178;2023-05-03T09:06:00;102480.75;;;22.03;40.68
46710;BME280;32442;51.514;-0.178;2023-05-03T09:08:40;102480.47;;;22.05;40.55
46710;BME280;32442;51.514;-0.178;2023-05-03T09:11:18;102477.94;;;22.03;40.79
46710;BME280;32442;51.514;-0.178;2023-05-03T09:13:46;102469.50;;;22.03;40.95
46710;BME280;32442;51.514;-0.178;2023-05-03T09:18:58;102477.38;;;21.96;40.99
46710;BME280;32442;51.514;-0.178;2023-05-03T09:21:26;102470.59;;;21.92;40.73
46710;BME280;32442;51.514;-0.178;2023-05-03T09:23:53;102475.16;;;21.93;40.90
46710;BME280;32442;51.514;-0.178;2023-05-03T09:29:04;102472.00;;;21.90;40.70
46710;BME280;32442;51.514;-0.178;2023-05-03T09:31:31;102472.56;;;21.87;40.76
46710;BME280;32442;51.514;-0.178;2023-05-03T09:33:59;102476.22;;;21.87;40.93
46710;BME280;32442;51.514;-0.178;2023-05-03T09:36:27;102473.69;;;21.86;41.02
46710;BME280;32442;51.514;-0.178;2023-05-03T09:38:54;102469.47;;;21.83;40.93
46710;BME280;32442;51.514;-0.178;2023-05-03T09:43:58;102471.44;;;21.83;41.09
46710;BME280;32442;51.514;-0.178;2023-05-03T09:46:28;102461.31;;;21.87;40.84
46710;BME280;32442;51.514;-0.178;2023-05-03T09:48:56;102472.56;;;21.92;40.88
46710;BME280;32442;51.514;-0.178;2023-05-03T09:51:24;102464.13;;;21.92;40.93
46710;BME280;32442;51.514;-0.178;2023-05-03T09:53:51;102457.09;;;21.89;40.70
46710;BME280;32442;51.514;-0.178;2023-05-03T09:56:19;102460.47;;;21.91;40.74
46710;BME280;32442;51.514;-0.178;2023-05-03T09:58:52;102464.44;;;21.95;40.67
46710;BME280;32442;51.514;-0.178;2023-05-03T10:01:20;102462.47;;;21.96;40.35
46710;BME280;32442;51.514;-0.178;2023-05-03T10:03:49;102460.22;;;21.98;40.50
46710;BME280;32442;51.514;-0.178;2023-05-03T10:06:18;102470.34;;;21.99;40.30
46710;BME280;32442;51.514;-0.178;2023-05-03T10:08:51;102466.41;;;22.00;40.50
46710;BME280;32442;51.514;-0.178;2023-05-03T10:11:21;102465.56;;;21.99;40.63
46710;BME280;32442;51.514;-0.178;2023-05-03T10:13:49;102466.69;;;21.98;40.22
46710;BME280;32442;51.514;-0.178;2023-05-03T10:16:20;102464.72;;;21.99;40.36
46710;BME280;32442;51.514;-0.178;2023-05-03T10:18:52;102460.75;;;21.95;40.52
46710;BME280;32442;51.514;-0.178;2023-05-03T10:21:24;102462.72;;;21.94;40.75
46710;BME280;32442;51.514;-0.178;2023-05-03T10:24:07;102458.81;;;21.95;40.38
46710;BME280;32442;51.514;-0.178;2023-05-03T10:26:35;102454.88;;;22.01;40.43
46710;BME280;32442;51.514;-0.178;2023-05-03T10:29:02;102442.50;;;22.07;40.58
46710;BME280;32442;51.514;-0.178;2023-05-03T10:36:45;102447.81;;;22.24;40.67
46710;BME280;32442;51.514;-0.178;2023-05-03T10:39:15;102447.81;;;22.29;40.45
46710;BME280;32442;51.514;-0.178;2023-05-03T10:41:44;102428.94;;;22.35;40.72
46710;BME280;32442;51.514;-0.178;2023-05-03T10:46:47;102428.63;;;22.46;40.56
46710;BME280;32442;51.514;-0.178;2023-05-03T10:49:16;102428.59;;;22.51;40.22
46710;BME280;32442;51.514;-0.178;2023-05-03T10:51:44;102421.00;;;22.57;40.68
46710;BME280;32442;51.514;-0.178;2023-05-03T10:54:11;102419.28;;;22.61;40.41
46710;BME280;32442;51.514;-0.178;2023-05-03T10:59:15;102407.41;;;22.69;40.27
46710;BME280;32442;51.514;-0.178;2023-05-03T11:01:43;102409.69;;;22.72;40.12
46710;BME280;32442;51.514;-0.178;2023-05-03T11:04:14;102413.59;;;22.76;39.98
46710;BME280;32442;51.514;-0.178;2023-05-03T11:06:43;102413.31;;;22.78;40.06
46710;BME280;32442;51.514;-0.178;2023-05-03T11:09:14;102411.94;;;22.80;39.80
46710;BME280;32442;51.514;-0.178;2023-05-03T11:11:42;102408.53;;;22.83;39.44
46710;BME280;32442;51.514;-0.178;2023-05-03T11:14:09;102399.78;;;22.85;40.00
46710;BME280;32442;51.514;-0.178;2023-05-03T11:16:37;102403.41;;;22.85;39.38
46710;BME280;32442;51.514;-0.178;2023-05-03T11:19:16;102396.09;;;22.89;39.72
46710;BME280;32442;51.514;-0.178;2023-05-03T11:21:43;102396.63;;;22.91;39.53
46710;BME280;32442;51.514;-0.178;2023-05-03T11:24:13;102388.75;;;22.93;39.80
46710;BME280;32442;51.514;-0.178;2023-05-03T11:26:40;102391.81;;;22.97;39.29
46710;BME280;32442;51.514;-0.178;2023-05-03T11:29:08;102383.09;;;22.93;39.22
46710;BME280;32442;51.514;-0.178;2023-05-03T11:31:36;102379.44;;;22.93;39.52
46710;BME280;32442;51.514;-0.178;2023-05-03T11:34:04;102383.38;;;22.97;39.68
46710;BME280;32442;51.514;-0.178;2023-05-03T11:36:31;102385.91;;;22.98;39.34
46710;BME280;32442;51.514;-0.178;2023-05-03T11:38:58;102378.81;;;23.01;39.61
46710;BME280;32442;51.514;-0.178;2023-05-03T11:41:26;102376.00;;;23.01;39.61
46710;BME280;32442;51.514;-0.178;2023-05-03T11:43:53;102365.84;;;23.00;39.59
46710;BME280;32442;51.514;-0.178;2023-05-03T11:46:40;102362.75;;;23.01;39.39
46710;BME280;32442;51.514;-0.178;2023-05-03T11:49:07;102361.06;;;23.00;39.33
46710;BME280;32442;51.514;-0.178;2023-05-03T11:51:35;102360.22;;;23.00;39.32
46710;BME280;32442;51.514;-0.178;2023-05-03T11:54:03;102361.91;;;23.01;39.46
46710;BME280;32442;51.514;-0.178;2023-05-03T11:56:50;102344.72;;;23.02;39.49
46710;BME280;32442;51.514;-0.178;2023-05-03T11:59:18;102345.84;;;23.01;39.32
46710;BME280;32442;51.514;-0.178;2023-05-03T12:01:45;102343.88;;;23.02;39.22
46710;BME280;32442;51.514;-0.178;2023-05-03T12:04:15;102333.13;;;23.04;39.26
46710;BME280;32442;51.514;-0.178;2023-05-03T12:06:43;102328.94;;;23.01;39.49
46710;BME280;32442;51.514;-0.178;2023-05-03T12:09:19;102315.97;;;23.00;39.13
46710;BME280;32442;51.514;-0.178;2023-05-03T12:11:50;102320.19;;;23.03;39.33
46710;BME280;32442;51.514;-0.178;2023-05-03T12:14:20;102314.84;;;23.01;39.42
46710;BME280;32442;51.514;-0.178;2023-05-03T12:16:51;102316.22;;;23.04;39.25
46710;BME280;32442;51.514;-0.178;2023-05-03T12:19:22;102314.00;;;23.01;39.17
46710;BME280;32442;51.514;-0.178;2023-05-03T12:21:50;102311.16;;;23.01;38.96
46710;BME280;32442;51.514;-0.178;2023-05-03T12:24:34;102310.31;;;23.00;38.39
46710;BME280;32442;51.514;-0.178;2023-05-03T12:27:04;102303.34;;;22.93;35.39
46710;BME280;32442;51.514;-0.178;2023-05-03T12:29:34;102299.97;;;22.86;35.64
46710;BME280;32442;51.514;-0.178;2023-05-03T12:32:01;102298.88;;;22.82;34.66
46710;BME280;32442;51.514;-0.178;2023-05-03T12:34:30;102295.84;;;22.73;35.41
46710;BME280;32442;51.514;-0.178;2023-05-03T12:37:01;102296.13;;;22.72;34.33
46710;BME280;32442;51.514;-0.178;2023-05-03T12:39:32;102299.78;;;22.67;33.85
46710;BME280;32442;51.514;-0.178;2023-05-03T12:42:00;102294.47;;;22.60;34.58
46710;BME280;32442;51.514;-0.178;2023-05-03T12:44:33;102295.06;;;22.57;33.76
46710;BME280;32442;51.514;-0.178;2023-05-03T12:47:01;102284.66;;;22.53;33.91
46710;BME280;32442;51.514;-0.178;2023-05-03T12:49:30;102283.53;;;22.49;33.44
46710;BME280;32442;51.514;-0.178;2023-05-03T12:51:58;102286.66;;;22.47;34.01
46710;BME280;32442;51.514;-0.178;2023-05-03T12:54:46;102278.78;;;22.44;33.89
46710;BME280;32442;51.514;-0.178;2023-05-03T12:57:15;102275.13;;;22.44;33.21
46710;BME280;32442;51.514;-0.178;2023-05-03T12:59:49;102279.94;;;22.38;33.46
46710;BME280;32442;51.514;-0.178;2023-05-03T13:02:28;102278.00;;;22.34;33.00
46710;BME280;32442;51.514;-0.178;2023-05-03T13:04:58;102276.31;;;22.33;33.56
46710;BME280;32442;51.514;-0.178;2023-05-03T13:07:27;102273.78;;;22.26;32.84
46710;BME280;32442;51.514;-0.178;2023-05-03T13:09:58;102268.47;;;22.25;32.66
46710;BME280;32442;51.514;-0.178;2023-05-03T13:12:28;102267.34;;;22.21;33.51
46710;BME280;32442;51.514;-0.178;2023-05-03T13:14:56;102267.63;;;22.19;32.54